Time;durP1;ratioP1;P1;durP2;ratioP2;P2;SDS_P1;SDS_P2;PMS_P1;PMS_P2;Temp;Humidity;BMP_temperature;BMP_pressure;BME280_temperature;BME280_humidity;BME280_pressure;Samples;Min_cycle;Max_cycle;Signal;HPM_P1;HPM_P2
2021/11/17 02:27:31;;;;;;;27.02;22.20;;;5.90;99.90;;;;;;4996644;28;20388;-88
2021/11/17 02:30:13;;;;;;;26.58;22.13;;;5.90;99.90;;;;;;4999885;28;20736;-93
2021/11/17 02:32:51;;;;;;;27.20;21.88;;;5.80;99.90;;;;;;4999400;28;20389;-91
2021/11/17 02:35:59;;;;;;;28.95;23.15;;;5.80;99.90;;;;;;5027474;28;20440;-94
2021/11/17 02:39:03;;;;;;;28.17;23.37;;;5.80;99.90;;;;;;5007074;28;20453;-92
2021/11/17 02:41:44;;;;;;;33.03;24.25;;;5.80;99.90;;;;;;4995985;28;20390;-92
2021/11/17 02:44:44;;;;;;;31.25;26.05;;;5.80;99.90;;;;;;5000359;28;20630;-91
2021/11/17 02:47:26;;;;;;;30.85;25.20;;;5.80;99.90;;;;;;5030740;28;20374;-90
2021/11/17 02:50:19;;;;;;;31.80;25.58;;;5.90;99.90;;;;;;4997688;28;20424;-92
2021/11/17 02:52:57;;;;;;;30.58;25.45;;;5.90;99.90;;;;;;5008257;28;20456;-92
2021/11/17 02:55:41;;;;;;;32.65;25.15;;;5.90;99.90;;;;;;5014313;28;20455;-92
2021/11/17 02:58:15;;;;;;;28.77;23.20;;;5.90;99.90;;;;;;4998675;28;20405;-93
2021/11/17 03:00:49;;;;;;;28.63;24.00;;;5.90;99.90;;;;;;5014330;28;20450;-91
2021/11/17 03:03:55;;;;;;;29.33;24.65;;;5.80;99.90;;;;;;5029429;28;20402;-92
2021/11/17 03:06:46;;;;;;;27.88;22.70;;;5.80;99.90;;;;;;5016554;28;20441;-93
2021/11/17 03:09:40;;;;;;;28.10;23.33;;;5.80;99.90;;;;;;5016638;28;20901;-94
2021/11/17 03:12:18;;;;;;;29.00;23.33;;;5.90;99.90;;;;;;5032861;28;20417;-90
2021/11/17 03:14:50;;;;;;;29.00;23.98;;;5.90;99.90;;;;;;5007641;28;20397;-93
2021/11/17 03:17:51;;;;;;;30.75;24.15;;;5.90;99.90;;;;;;5014091;28;20402;-93
2021/11/17 03:20:29;;;;;;;29.92;25.20;;;5.90;99.90;;;;;;4998532;28;20378;-92
2021/11/17 03:23:03;;;;;;;31.60;25.20;;;5.90;99.90;;;;;;5002867;28;20396;-93
2021/11/17 03:25:38;;;;;;;31.13;24.23;;;5.80;99.90;;;;;;5024461;28;20404;-94
2021/11/17 03:28:33;;;;;;;30.58;24.45;;;5.90;99.90;;;;;;5029794;28;20472;-92
2021/11/17 03:31:09;;;;;;;31.20;24.00;;;5.90;99.90;;;;;;5000321;28;21297;-92
2021/11/17 03:33:59;;;;;;;29.77;23.77;;;5.80;99.90;;;;;;4997262;28;20396;-87
2021/11/17 03:36:58;;;;;;;31.88;24.52;;;5.80;99.90;;;;;;5014166;28;20448;-92
2021/11/17 03:39:30;;;;;;;32.03;24.52;;;5.70;99.90;;;;;;4965993;28;20488;-93
2021/11/17 03:42:04;;;;;;;34.42;25.65;;;5.80;99.90;;;;;;5017939;28;20393;-93
2021/11/17 03:44:54;;;;;;;31.25;24.88;;;5.80;99.90;;;;;;5015301;28;20463;-92
2021/11/17 03:47:37;;;;;;;34.40;25.88;;;5.80;99.90;;;;;;5013788;28;20384;-93
2021/11/17 03:50:29;;;;;;;34.10;26.08;;;5.70;99.90;;;;;;5024267;28;20416;-92
2021/11/17 03:53:39;;;;;;;35.43;26.17;;;5.80;99.90;;;;;;5030886;28;20400;-91
2021/11/17 03:56:07;;;;;;;34.67;26.25;;;5.70;99.90;;;;;;4963115;28;20413;-91
2021/11/17 03:59:02;;;;;;;34.80;26.35;;;5.70;99.90;;;;;;5012761;28;20397;-92
2021/11/17 04:02:08;;;;;;;35.85;27.52;;;5.70;99.90;;;;;;5031634;28;20401;-89
2021/11/17 04:04:40;;;;;;;35.10;26.65;;;5.70;99.90;;;;;;5025043;28;20413;-90
2021/11/17 04:07:31;;;;;;;33.90;27.05;;;5.70;99.90;;;;;;4990501;28;20428;-93
2021/11/17 04:10:30;;;;;;;34.92;27.35;;;5.70;99.90;;;;;;5014890;28;20886;-92
2021/11/17 04:13:14;;;;;;;39.08;29.55;;;5.70;99.90;;;;;;5023182;28;20385;-91
2021/11/17 04:16:10;;;;;;;33.60;27.10;;;5.60;99.90;;;;;;5012152;28;20393;-92
2021/11/17 04:19:23;;;;;;;36.08;27.10;;;5.70;99.90;;;;;;4997399;28;20423;-91
2021/11/17 04:22:14;;;;;;;35.22;27.02;;;5.80;99.90;;;;;;5006122;28;20419;-91
2021/11/17 04:25:04;;;;;;;34.03;26.77;;;5.70;99.90;;;;;;5031797;28;20518;-88
2021/11/17 04:27:39;;;;;;;26.42;21.67;;;5.60;99.90;;;;;;4995646;28;20394;-90
2021/11/17 04:30:37;;;;;;;29.85;22.73;;;5.50;99.90;;;;;;4998832;28;20391;-92
2021/11/17 04:33:25;;;;;;;25.70;21.10;;;5.60;99.90;;;;;;5031962;28;20392;-85
2021/11/17 04:36:24;;;;;;;26.60;21.30;;;5.50;99.90;;;;;;5030866;28;20401;-90
2021/11/17 04:39:12;;;;;;;26.83;21.30;;;5.40;99.90;;;;;;5031361;28;20389;-88
2021/11/17 04:41:59;;;;;;;25.92;21.50;;;5.50;99.90;;;;;;4996603;28;20406;-92
2021/11/17 04:44:43;;;;;;;25.40;20.63;;;5.50;99.90;;;;;;4995956;28;20399;-92
2021/11/17 04:47:21;;;;;;;28.00;22.40;;;5.60;99.90;;;;;;5013322;28;20413;-89
2021/11/17 04:49:53;;;;;;;27.85;20.95;;;5.50;99.90;;;;;;4991652;28;20385;-92
2021/11/17 04:52:49;;;;;;;27.13;21.80;;;5.50;99.90;;;;;;5012577;28;20402;-91
2021/11/17 04:55:22;;;;;;;27.27;21.13;;;5.50;99.90;;;;;;4997194;28;20480;-92
2021/11/17 04:58:12;;;;;;;26.92;20.73;;;5.50;99.90;;;;;;5029324;28;20505;-90
2021/11/17 05:01:04;;;;;;;24.08;20.60;;;5.40;99.90;;;;;;5008872;28;20394;-92
2021/11/17 05:03:39;;;;;;;26.53;21.63;;;5.50;99.90;;;;;;5013485;28;20396;-93
2021/11/17 05:06:47;;;;;;;25.03;21.27;;;5.40;99.90;;;;;;4995860;28;20479;-93
2021/11/17 05:09:31;;;;;;;26.25;20.70;;;5.50;99.90;;;;;;5014828;28;20393;-91
2021/11/17 05:12:22;;;;;;;26.05;20.17;;;5.60;99.90;;;;;;5024227;28;20408;-93
2021/11/17 05:15:12;;;;;;;25.37;21.23;;;5.70;99.90;;;;;;4997545;28;20408;-92
2021/11/17 05:18:05;;;;;;;25.40;20.57;;;5.70;99.90;;;;;;5010072;28;20437;-92
2021/11/17 05:20:43;;;;;;;26.50;21.73;;;5.80;99.90;;;;;;5011640;28;20405;-92
2021/11/17 05:23:21;;;;;;;25.63;21.50;;;5.70;99.90;;;;;;4995143;28;20389;-93
2021/11/17 05:25:58;;;;;;;24.67;21.17;;;5.60;99.90;;;;;;5029212;28;20386;-91
2021/11/17 05:28:39;;;;;;;23.90;19.60;;;5.60;99.90;;;;;;5021865;28;20378;-93
2021/11/17 05:31:35;;;;;;;23.10;19.13;;;5.60;99.90;;;;;;5038411;28;20397;-91
2021/11/17 05:34:39;;;;;;;23.75;20.27;;;5.50;99.90;;;;;;4998385;28;20393;-92
2021/11/17 05:37:11;;;;;;;24.05;19.67;;;5.50;99.90;;;;;;4976701;28;20413;-92
2021/11/17 05:40:03;;;;;;;22.50;19.48;;;5.50;99.90;;;;;;4972703;28;20501;-93
2021/11/17 05:42:44;;;;;;;24.43;21.10;;;5.50;99.90;;;;;;5002102;28;20401;-92
2021/11/17 05:45:30;;;;;;;28.60;22.37;;;5.50;99.90;;;;;;4999649;28;20398;-92
2021/11/17 05:48:18;;;;;;;27.60;22.90;;;5.50;99.90;;;;;;5004101;28;20397;-93
2021/11/17 05:51:11;;;;;;;27.25;23.23;;;5.50;99.90;;;;;;5016158;28;20388;-88
2021/11/17 05:53:51;;;;;;;29.52;24.17;;;5.50;99.90;;;;;;5010514;28;20413;-94
2021/11/17 05:56:32;;;;;;;30.33;25.10;;;5.50;99.90;;;;;;5022193;28;20418;-93
2021/11/17 05:59:03;;;;;;;30.58;25.48;;;5.50;99.90;;;;;;5037725;28;20875;-90
2021/11/17 06:01:37;;;;;;;33.97;26.05;;;5.50;99.90;;;;;;5015729;28;20429;-94
2021/11/17 06:04:04;;;;;;;30.80;25.42;;;5.60;99.90;;;;;;5015393;28;20409;-94
2021/11/17 06:06:36;;;;;;;33.08;26.08;;;5.60;99.90;;;;;;5016570;28;20401;-94
2021/11/17 06:09:01;;;;;;;30.98;24.42;;;5.70;99.90;;;;;;5016326;28;20403;-93
2021/11/17 06:11:32;;;;;;;30.67;24.53;;;5.60;99.90;;;;;;5015857;28;20464;-93
2021/11/17 06:14:02;;;;;;;31.33;24.40;;;5.70;99.90;;;;;;5014545;28;20397;-90
2021/11/17 06:16:29;;;;;;;34.13;26.48;;;5.50;99.90;;;;;;5014788;28;20413;-95
2021/11/17 06:18:56;;;;;;;33.90;26.00;;;5.50;99.90;;;;;;5017775;28;20423;-94
2021/11/17 06:21:22;;;;;;;33.40;26.00;;;5.50;99.90;;;;;;5015351;28;20447;-93
2021/11/17 06:23:59;;;;;;;34.28;25.67;;;5.50;99.90;;;;;;5013607;28;20397;-95
2021/11/17 06:26:30;;;;;;;34.45;26.30;;;5.40;99.90;;;;;;5204290;23;20379;-89
2021/11/17 06:29:00;;;;;;;36.45;24.95;;;5.40;99.90;;;;;;5021761;28;20399;-87
2021/11/17 06:31:27;;;;;;;32.65;25.88;;;5.50;99.90;;;;;;5014731;28;20949;-87
2021/11/17 06:33:53;;;;;;;34.25;26.60;;;5.50;99.90;;;;;;5020304;28;20496;-88
2021/11/17 06:36:19;;;;;;;35.85;27.35;;;5.50;99.90;;;;;;5013542;28;20504;-90
2021/11/17 06:38:45;;;;;;;36.07;26.57;;;5.50;99.90;;;;;;5011508;28;20461;-89
2021/11/17 06:41:13;;;;;;;35.97;27.38;;;5.50;99.90;;;;;;5013022;28;20440;-92
2021/11/17 06:43:39;;;;;;;35.63;26.27;;;5.60;99.90;;;;;;5015013;28;20459;-88
2021/11/17 06:46:04;;;;;;;38.33;28.33;;;5.60;99.90;;;;;;5015452;28;20382;-89
2021/11/17 06:48:30;;;;;;;36.77;25.93;;;5.60;99.90;;;;;;5015258;28;20378;-91
2021/11/17 06:50:58;;;;;;;36.87;26.70;;;5.70;99.90;;;;;;5020350;28;20392;-90
2021/11/17 06:53:30;;;;;;;35.28;25.67;;;5.60;99.90;;;;;;5016106;28;20413;-90
2021/11/17 06:55:56;;;;;;;38.20;26.60;;;5.60;99.90;;;;;;5021341;28;20408;-88
2021/11/17 06:58:25;;;;;;;43.70;28.70;;;5.60;99.90;;;;;;5015016;28;20442;-89
2021/11/17 07:01:02;;;;;;;38.67;28.33;;;5.50;99.90;;;;;;5013130;28;20480;-90
2021/11/17 07:03:30;;;;;;;41.40;28.93;;;5.50;99.90;;;;;;5014802;28;20382;-91
2021/11/17 07:05:56;;;;;;;39.97;28.10;;;5.50;99.90;;;;;;5014593;28;20381;-89
2021/11/17 07:08:23;;;;;;;43.80;29.63;;;5.60;99.90;;;;;;5014657;28;20478;-88
2021/11/17 07:10:49;;;;;;;43.15;29.83;;;5.50;99.90;;;;;;5016006;28;20448;-87
2021/11/17 07:13:15;;;;;;;40.28;28.05;;;5.40;99.90;;;;;;5014821;28;20403;-87
2021/11/17 07:15:41;;;;;;;43.27;28.63;;;5.60;99.90;;;;;;5016584;28;20389;-92
2021/11/17 07:18:08;;;;;;;42.53;28.73;;;5.60;99.90;;;;;;5016067;28;20501;-91
2021/11/17 07:20:35;;;;;;;43.28;29.85;;;5.50;99.90;;;;;;5017649;28;20374;-88
2021/11/17 07:23:01;;;;;;;39.47;28.00;;;5.50;99.90;;;;;;5019272;28;20386;-89
2021/11/17 07:25:27;;;;;;;38.22;27.50;;;5.60;99.90;;;;;;5016941;28;20955;-87
2021/11/17 07:27:55;;;;;;;35.92;26.77;;;5.60;99.90;;;;;;5018745;28;20546;-89
2021/11/17 07:30:26;;;;;;;37.63;27.27;;;5.70;99.90;;;;;;5015014;28;20405;-87
2021/11/17 07:32:52;;;;;;;38.33;27.73;;;5.60;99.90;;;;;;5016345;28;20486;-87
2021/11/17 07:35:22;;;;;;;39.72;27.90;;;5.70;99.90;;;;;;5018370;28;20378;-86
2021/11/17 07:37:47;;;;;;;37.87;26.97;;;5.70;99.90;;;;;;5017671;28;20918;-89
2021/11/17 07:40:14;;;;;;;37.97;27.43;;;5.70;99.90;;;;;;5019629;28;20389;-86
2021/11/17 07:42:41;;;;;;;37.58;27.90;;;5.70;99.90;;;;;;5021916;28;20806;-86
2021/11/17 07:45:09;;;;;;;41.42;28.70;;;5.80;99.90;;;;;;5017419;28;20388;-87
2021/11/17 07:47:35;;;;;;;39.83;28.15;;;5.60;99.90;;;;;;5033570;28;20774;-86
2021/11/17 07:50:02;;;;;;;40.13;28.03;;;5.70;99.90;;;;;;5017201;28;20381;-90
2021/11/17 07:52:28;;;;;;;41.85;28.88;;;5.70;99.90;;;;;;5015851;28;20393;-88
2021/11/17 07:54:54;;;;;;;39.80;27.92;;;5.70;99.90;;;;;;5016065;28;20381;-89
2021/11/17 07:57:20;;;;;;;39.53;27.83;;;5.70;99.90;;;;;;5011847;28;20454;-89
2021/11/17 07:59:46;;;;;;;42.97;30.25;;;5.70;99.90;;;;;;5013750;28;20724;-88
2021/11/17 08:02:13;;;;;;;39.25;27.80;;;5.70;99.90;;;;;;5015312;28;20381;-87
2021/11/17 08:04:41;;;;;;;38.35;27.60;;;5.80;99.90;;;;;;5022730;28;20384;-87
2021/11/17 08:07:13;;;;;;;39.08;28.45;;;5.80;99.90;;;;;;5019703;28;20436;-88
2021/11/17 08:09:39;;;;;;;38.90;27.42;;;5.80;99.90;;;;;;5017058;28;20444;-88
2021/11/17 08:12:06;;;;;;;39.13;28.10;;;5.90;99.90;;;;;;5012998;28;20407;-88
2021/11/17 08:14:32;;;;;;;41.45;29.42;;;5.90;99.90;;;;;;5025457;28;20392;-87
2021/11/17 08:16:58;;;;;;;38.97;29.10;;;5.90;99.90;;;;;;5007755;28;20403;-87
2021/11/17 08:19:24;;;;;;;38.73;28.03;;;5.90;99.90;;;;;;5014900;28;20393;-90
2021/11/17 08:21:50;;;;;;;37.33;28.33;;;5.90;99.90;;;;;;5010287;28;20375;-91
2021/11/17 08:24:15;;;;;;;37.70;27.98;;;5.90;99.90;;;;;;5011129;28;20381;-88
2021/11/17 08:26:41;;;;;;;37.15;26.73;;;5.90;99.90;;;;;;5009357;28;20494;-86
2021/11/17 08:29:09;;;;;;;35.78;27.05;;;5.90;99.90;;;;;;5004059;28;20405;-86
2021/11/17 08:31:36;;;;;;;35.78;27.08;;;6.00;99.90;;;;;;5025751;28;20394;-87
2021/11/17 08:34:01;;;;;;;37.13;27.02;;;6.00;99.90;;;;;;5026183;28;20471;-88
2021/11/17 08:36:27;;;;;;;34.97;26.57;;;6.00;99.90;;;;;;5014537;28;20927;-89
2021/11/17 08:38:54;;;;;;;36.70;26.90;;;6.00;99.90;;;;;;5014567;28;20401;-88
2021/11/17 08:41:23;;;;;;;37.42;27.27;;;6.10;99.90;;;;;;5026106;28;20408;-87
2021/11/17 08:43:49;;;;;;;36.25;26.40;;;6.10;99.90;;;;;;5029833;28;20452;-88
2021/11/17 08:46:15;;;;;;;37.43;27.60;;;6.20;99.90;;;;;;5025116;28;20389;-89
2021/11/17 08:48:44;;;;;;;38.45;26.58;;;6.10;99.90;;;;;;5024733;28;20425;-87
2021/11/17 08:51:14;;;;;;;37.80;26.58;;;6.10;99.90;;;;;;5014372;28;20393;-87
2021/11/17 08:53:43;;;;;;;37.00;27.17;;;6.20;99.90;;;;;;5014736;28;20408;-89
2021/11/17 08:56:10;;;;;;;35.40;26.63;;;6.10;99.90;;;;;;5009230;28;20374;-89
2021/11/17 08:58:36;;;;;;;37.50;26.55;;;6.10;99.90;;;;;;5025540;28;20385;-88
2021/11/17 09:01:03;;;;;;;38.42;27.15;;;6.10;99.90;;;;;;5026484;28;20548;-86
2021/11/17 09:03:29;;;;;;;38.33;28.05;;;6.00;99.90;;;;;;5016373;28;20393;-86
2021/11/17 09:05:58;;;;;;;38.45;27.63;;;6.00;99.90;;;;;;5021778;28;20388;-88
2021/11/17 09:08:24;;;;;;;36.95;27.55;;;6.00;99.90;;;;;;5021712;28;20392;-91
2021/11/17 09:10:53;;;;;;;34.38;25.13;;;6.00;99.90;;;;;;5018452;28;20481;-89
2021/11/17 09:13:20;;;;;;;37.17;26.77;;;6.10;99.90;;;;;;5018135;28;20411;-87
2021/11/17 09:15:47;;;;;;;37.47;26.65;;;6.10;99.90;;;;;;5031232;28;20400;-87
2021/11/17 09:18:16;;;;;;;37.15;27.20;;;6.00;99.90;;;;;;5028955;28;20493;-86
2021/11/17 09:20:42;;;;;;;37.92;27.55;;;6.00;99.90;;;;;;5013530;28;20385;-89
2021/11/17 09:23:10;;;;;;;35.30;27.02;;;6.00;99.90;;;;;;5030423;28;20402;-88
2021/11/17 09:25:36;;;;;;;33.33;25.38;;;6.20;99.90;;;;;;5020552;28;20568;-89
2021/11/17 09:28:03;;;;;;;32.33;25.27;;;6.20;99.90;;;;;;5017590;28;20413;-88
2021/11/17 09:30:31;;;;;;;36.40;25.90;;;6.20;99.90;;;;;;5030431;28;20377;-90
2021/11/17 09:32:59;;;;;;;35.87;25.37;;;6.20;99.90;;;;;;5012177;28;20397;-88
2021/11/17 09:35:31;;;;;;;36.47;26.02;;;6.20;99.90;;;;;;5031501;28;20397;-90
2021/11/17 09:37:58;;;;;;;37.15;26.13;;;6.10;99.90;;;;;;5016202;28;20419;-87
2021/11/17 09:40:37;;;;;;;32.37;24.57;;;6.20;99.90;;;;;;5017483;28;20417;-87
2021/11/17 09:43:03;;;;;;;32.35;24.73;;;6.30;99.90;;;;;;5019334;28;20902;-90
2021/11/17 09:45:30;;;;;;;29.80;22.77;;;6.40;99.90;;;;;;5019007;28;20404;-89
2021/11/17 09:47:56;;;;;;;30.77;23.65;;;6.50;99.90;;;;;;5019228;28;20381;-89
2021/11/17 09:50:47;;;;;;;29.58;24.10;;;6.40;99.90;;;;;;5028951;28;20455;-90
2021/11/17 09:53:44;;;;;;;29.20;22.67;;;6.30;99.90;;;;;;5025171;28;20421;-87
2021/11/17 09:56:34;;;;;;;29.42;22.65;;;6.30;99.90;;;;;;5018750;28;20394;-90
2021/11/17 09:59:05;;;;;;;28.10;23.02;;;6.40;99.90;;;;;;5020213;28;20421;-89
2021/11/17 10:01:38;;;;;;;27.02;22.52;;;6.40;99.90;;;;;;5020644;28;20393;-89
2021/11/17 10:04:06;;;;;;;28.20;22.35;;;6.40;99.90;;;;;;5016897;28;20520;-87
2021/11/17 10:09:46;;;;;;;28.92;22.52;;;6.20;99.90;;;;;;5030833;28;20401;-87
2021/11/17 10:12:49;;;;;;;30.50;23.37;;;6.20;99.90;;;;;;5034411;28;20390;-88
2021/11/17 10:15:10;;;;;;;28.60;22.30;;;6.20;99.90;;;;;;5028748;28;20447;-90
2021/11/17 10:17:45;;;;;;;30.42;23.92;;;6.20;99.90;;;;;;5017899;28;20409;-88
2021/11/17 10:20:36;;;;;;;28.98;22.92;;;6.20;99.90;;;;;;5017606;28;20451;-92
2021/11/17 10:23:16;;;;;;;31.48;22.77;;;6.30;99.90;;;;;;5029177;28;20409;-88
2021/11/17 10:25:47;;;;;;;28.92;23.27;;;6.40;99.90;;;;;;5012196;28;20389;-91
2021/11/17 10:28:20;;;;;;;29.77;23.67;;;6.30;99.90;;;;;;5028929;28;20416;-90
2021/11/17 10:31:07;;;;;;;30.83;23.73;;;6.40;99.90;;;;;;5033979;28;20416;-88
2021/11/17 10:34:07;;;;;;;28.60;22.90;;;6.40;99.90;;;;;;5028579;28;20414;-87
2021/11/17 10:36:54;;;;;;;29.27;22.87;;;6.30;99.90;;;;;;5036006;28;20420;-90
2021/11/17 10:39:28;;;;;;;28.08;21.98;;;6.30;99.90;;;;;;5015665;28;20385;-88
2021/11/17 10:42:07;;;;;;;29.63;23.33;;;6.30;99.90;;;;;;5024836;28;20487;-91
2021/11/17 10:44:42;;;;;;;28.73;22.97;;;6.30;99.90;;;;;;5012884;28;20572;-89
2021/11/17 10:47:19;;;;;;;27.02;21.50;;;6.30;99.90;;;;;;5029067;28;20436;-89
2021/11/17 10:49:52;;;;;;;28.43;22.13;;;6.40;99.90;;;;;;5028948;28;20775;-90
2021/11/17 10:52:31;;;;;;;27.03;21.47;;;6.30;99.90;;;;;;5017798;28;20405;-89
2021/11/17 10:55:00;;;;;;;27.10;21.88;;;6.40;99.90;;;;;;5016483;28;20408;-89
2021/11/17 10:57:38;;;;;;;27.13;20.95;;;6.40;99.90;;;;;;5029797;28;20401;-90
2021/11/17 11:00:08;;;;;;;25.25;21.25;;;6.60;99.90;;;;;;5018851;28;20389;-88
2021/11/17 11:02:38;;;;;;;26.50;21.55;;;6.70;99.90;;;;;;5018360;28;20390;-90
2021/11/17 11:05:08;;;;;;;24.98;19.65;;;6.60;99.90;;;;;;5014144;28;20389;-89
2021/11/17 11:08:15;;;;;;;25.05;20.40;;;6.70;99.90;;;;;;5018782;28;20385;-89
2021/11/17 11:11:04;;;;;;;26.25;20.00;;;6.60;99.90;;;;;;5020516;28;20385;-86
2021/11/17 11:13:40;;;;;;;26.55;21.20;;;6.50;99.90;;;;;;5018277;28;20401;-89
2021/11/17 11:16:21;;;;;;;25.30;19.35;;;6.50;99.90;;;;;;5015199;28;20409;-89
2021/11/17 11:19:09;;;;;;;25.35;20.27;;;6.40;99.90;;;;;;5029204;28;20443;-87
2021/11/17 11:21:40;;;;;;;25.48;19.42;;;6.40;99.90;;;;;;5016415;28;20390;-89
2021/11/17 11:24:24;;;;;;;21.25;18.48;;;6.30;99.90;;;;;;5020074;28;20386;-88
2021/11/17 11:27:24;;;;;;;25.20;19.30;;;6.50;99.90;;;;;;5017318;28;20393;-90
2021/11/17 11:30:03;;;;;;;22.00;18.80;;;6.40;99.90;;;;;;5025147;28;20390;-88
2021/11/17 11:32:28;;;;;;;25.50;20.23;;;6.30;99.90;;;;;;5016021;28;20493;-88
2021/11/17 11:35:01;;;;;;;24.40;19.23;;;6.30;99.90;;;;;;5026600;28;20393;-87
2021/11/17 11:37:27;;;;;;;25.02;20.65;;;6.30;99.90;;;;;;5016715;28;20409;-88
2021/11/17 11:40:18;;;;;;;25.08;21.90;;;6.30;99.90;;;;;;5016124;28;20393;-91
2021/11/17 11:43:18;;;;;;;25.48;20.95;;;6.20;99.90;;;;;;5025942;28;20395;-91
2021/11/17 11:45:48;;;;;;;21.70;18.42;;;6.20;99.90;;;;;;5015183;28;20401;-86
2021/11/17 11:48:23;;;;;;;21.20;17.27;;;6.20;99.90;;;;;;5015624;28;20386;-86
2021/11/17 11:50:57;;;;;;;17.73;15.20;;;6.20;99.90;;;;;;5026815;28;20451;-88
2021/11/17 11:53:50;;;;;;;15.93;13.73;;;6.30;99.90;;;;;;5006335;28;20455;-86
2021/11/17 11:56:28;;;;;;;16.17;13.30;;;6.60;99.90;;;;;;5001114;28;20413;-88
2021/11/17 11:59:13;;;;;;;13.50;12.00;;;6.80;99.90;;;;;;5015801;28;20393;-88
2021/11/17 12:01:39;;;;;;;12.02;10.63;;;6.90;99.90;;;;;;5025824;28;20930;-88
2021/11/17 12:04:31;;;;;;;13.02;10.50;;;7.10;99.90;;;;;;5027323;28;20389;-88
2021/11/17 12:07:09;;;;;;;12.27;10.50;;;7.20;99.90;;;;;;5015039;28;21151;-91
2021/11/17 12:09:51;;;;;;;11.25;10.05;;;7.20;99.90;;;;;;5016598;28;21197;-88
2021/11/17 12:12:23;;;;;;;11.23;9.25;;;7.40;99.90;;;;;;5011347;28;20389;-89
2021/11/17 12:14:52;;;;;;;12.35;9.90;;;7.40;99.90;;;;;;5009884;28;20455;-91
2021/11/17 12:17:24;;;;;;;10.43;9.10;;;7.40;99.90;;;;;;5018065;28;20405;-91
2021/11/17 12:19:54;;;;;;;11.25;9.50;;;7.50;99.90;;;;;;5016064;28;20401;-88
2021/11/17 12:22:42;;;;;;;12.40;9.98;;;7.40;99.90;;;;;;5016245;28;20389;-88
2021/11/17 12:25:21;;;;;;;12.25;9.45;;;7.40;99.90;;;;;;5017429;28;20398;-90
2021/11/17 12:27:52;;;;;;;10.90;9.43;;;7.40;99.90;;;;;;5018875;28;20408;-91
2021/11/17 12:30:35;;;;;;;11.43;9.88;;;7.40;99.90;;;;;;5017234;28;20740;-91
2021/11/17 12:33:11;;;;;;;12.30;10.02;;;7.40;99.90;;;;;;5016065;28;20817;-87
2021/11/17 12:35:42;;;;;;;16.15;10.57;;;7.40;99.90;;;;;;5027615;28;20390;-87
2021/11/17 12:38:22;;;;;;;12.40;10.15;;;7.40;99.90;;;;;;5017913;28;20906;-87
2021/11/17 12:41:06;;;;;;;13.23;10.10;;;7.40;99.90;;;;;;5009695;28;20397;-87
2021/11/17 12:43:57;;;;;;;11.63;9.90;;;7.50;99.90;;;;;;5017611;28;20402;-88
2021/11/17 12:46:27;;;;;;;12.75;10.40;;;7.50;99.90;;;;;;5007570;28;20407;-88
2021/11/17 12:49:13;;;;;;;18.52;11.43;;;7.40;99.90;;;;;;5016887;28;20381;-89
2021/11/17 12:51:49;;;;;;;13.55;10.95;;;7.30;99.90;;;;;;5017880;28;20389;-88
2021/11/17 12:54:36;;;;;;;13.90;10.88;;;7.40;99.90;;;;;;5015510;28;20463;-91
2021/11/17 12:57:22;;;;;;;14.13;11.43;;;7.30;99.90;;;;;;5018148;28;20569;-88
2021/11/17 12:59:58;;;;;;;12.80;10.88;;;7.20;99.90;;;;;;5016382;28;20400;-87
2021/11/17 13:02:24;;;;;;;15.27;10.65;;;7.30;99.90;;;;;;5029880;28;20409;-88
2021/11/17 13:05:13;;;;;;;13.95;11.30;;;7.40;99.90;;;;;;5016541;28;20377;-89
2021/11/17 13:08:06;;;;;;;13.70;10.88;;;7.30;99.90;;;;;;5030631;28;20458;-90
2021/11/17 13:10:38;;;;;;;13.70;10.70;;;7.40;99.90;;;;;;5027421;28;20476;-90
2021/11/17 13:13:16;;;;;;;13.98;11.30;;;7.40;99.90;;;;;;5027922;28;20401;-89
2021/11/17 13:15:59;;;;;;;11.43;10.07;;;7.40;99.90;;;;;;5014898;28;20393;-91
2021/11/17 13:18:29;;;;;;;13.53;11.30;;;7.40;99.90;;;;;;5017643;28;20409;-87
2021/11/17 13:21:33;;;;;;;11.95;10.43;;;7.20;99.90;;;;;;5012686;28;20382;-87
2021/11/17 13:24:01;;;;;;;13.85;11.18;;;7.30;99.90;;;;;;5019388;28;20401;-89
2021/11/17 13:26:38;;;;;;;13.38;11.27;;;7.40;99.90;;;;;;5027043;28;20463;-89
2021/11/17 13:29:43;;;;;;;14.20;11.15;;;7.50;99.90;;;;;;5027900;28;20428;-88
2021/11/17 13:32:14;;;;;;;13.45;10.80;;;7.60;99.90;;;;;;5017707;28;20397;-89
2021/11/17 13:34:55;;;;;;;12.67;11.23;;;7.60;99.90;;;;;;5015317;28;20417;-87
2021/11/17 13:37:40;;;;;;;13.27;11.48;;;7.60;99.90;;;;;;5014935;28;20413;-87
2021/11/17 13:40:17;;;;;;;14.13;12.00;;;7.60;99.90;;;;;;5018378;28;20397;-87
2021/11/17 13:42:43;;;;;;;15.82;12.75;;;7.50;99.90;;;;;;5017219;28;20929;-86
2021/11/17 13:45:19;;;;;;;16.23;12.95;;;7.50;99.90;;;;;;5026507;28;20396;-88
2021/11/17 13:47:46;;;;;;;15.40;13.25;;;7.40;99.90;;;;;;5017897;28;20785;-87
2021/11/17 13:50:14;;;;;;;15.53;12.90;;;7.30;99.90;;;;;;5019242;28;20502;-88
2021/11/17 13:52:43;;;;;;;14.93;12.73;;;7.30;99.90;;;;;;5011669;28;20389;-87
2021/11/17 13:55:13;;;;;;;14.73;12.95;;;7.40;99.90;;;;;;5033152;28;20436;-87
2021/11/17 13:57:43;;;;;;;16.08;12.90;;;7.30;99.90;;;;;;5022369;28;20412;-88
2021/11/17 14:00:12;;;;;;;13.88;12.23;;;7.30;99.90;;;;;;5017620;28;20413;-86
2021/11/17 14:02:46;;;;;;;16.33;13.50;;;7.40;99.90;;;;;;5018728;28;20389;-88
2021/11/17 14:05:12;;;;;;;15.60;12.85;;;7.40;99.90;;;;;;5017961;28;20393;-89
2021/11/17 14:07:38;;;;;;;15.05;13.45;;;7.40;99.90;;;;;;5012674;28;20814;-86
2021/11/17 14:10:06;;;;;;;14.63;12.77;;;7.50;99.90;;;;;;5033631;28;20389;-87
2021/11/17 14:12:38;;;;;;;15.43;13.88;;;7.40;99.90;;;;;;5032123;28;20377;-90
2021/11/17 14:15:06;;;;;;;18.23;13.85;;;7.30;99.90;;;;;;5008145;28;20934;-87
2021/11/17 14:17:31;;;;;;;16.88;14.43;;;7.30;99.90;;;;;;5016678;28;20477;-89
2021/11/17 14:19:57;;;;;;;15.83;14.13;;;7.20;99.90;;;;;;5012709;28;20406;-87
2021/11/17 14:22:23;;;;;;;15.07;13.33;;;7.20;99.90;;;;;;5017846;28;20381;-86
2021/11/17 14:24:51;;;;;;;16.52;13.40;;;7.20;99.90;;;;;;5016367;28;20386;-89
2021/11/17 14:27:17;;;;;;;15.40;13.50;;;7.30;99.90;;;;;;5018700;28;21006;-87
2021/11/17 14:29:58;;;;;;;14.98;12.48;;;7.30;99.90;;;;;;5015742;28;20390;-91
2021/11/17 14:32:31;;;;;;;15.80;14.10;;;7.30;99.90;;;;;;5014984;28;20756;-88
2021/11/17 14:34:57;;;;;;;14.68;12.90;;;7.30;99.90;;;;;;5017821;28;20399;-88
2021/11/17 14:37:23;;;;;;;15.45;13.85;;;7.30;99.90;;;;;;5015204;28;20400;-86
2021/11/17 14:39:50;;;;;;;15.23;13.63;;;7.40;99.90;;;;;;5016506;28;20383;-88
2021/11/17 14:42:17;;;;;;;15.52;13.93;;;7.40;99.90;;;;;;5034206;28;20378;-88
2021/11/17 14:44:46;;;;;;;16.92;14.43;;;7.30;99.90;;;;;;5015255;28;20391;-90
2021/11/17 14:47:15;;;;;;;16.90;14.35;;;7.30;99.90;;;;;;5019205;28;20486;-86
2021/11/17 14:49:41;;;;;;;19.40;14.57;;;7.30;99.90;;;;;;5017674;28;20383;-90
2021/11/17 14:52:14;;;;;;;19.17;15.88;;;7.30;99.90;;;;;;5016635;28;20422;-93
2021/11/17 14:54:40;;;;;;;17.23;14.47;;;7.30;99.90;;;;;;5006117;28;21422;-87
2021/11/17 14:57:07;;;;;;;17.20;14.73;;;7.30;99.90;;;;;;5016938;28;20893;-87
2021/11/17 14:59:37;;;;;;;17.05;15.23;;;7.30;99.90;;;;;;5032117;28;20389;-91
2021/11/17 15:02:06;;;;;;;19.25;16.17;;;7.20;99.90;;;;;;5029287;28;20440;-87
2021/11/17 15:04:35;;;;;;;19.05;16.38;;;7.10;99.90;;;;;;5018135;28;20420;-87
2021/11/17 15:07:05;;;;;;;19.27;15.90;;;7.10;99.90;;;;;;5017528;28;20472;-88
2021/11/17 15:09:53;;;;;;;18.30;16.40;;;7.00;99.90;;;;;;5016979;28;20426;-87
2021/11/17 15:12:26;;;;;;;20.17;16.73;;;7.10;99.90;;;;;;5013219;28;20398;-89
2021/11/17 15:14:58;;;;;;;18.67;16.55;;;6.90;99.90;;;;;;5011198;28;20458;-88
2021/11/17 15:17:24;;;;;;;20.42;17.38;;;6.90;99.90;;;;;;5016829;28;20413;-90
2021/11/17 15:19:50;;;;;;;20.92;16.55;;;6.90;99.90;;;;;;5027808;28;20442;-87
2021/11/17 15:22:23;;;;;;;20.15;17.33;;;6.80;99.90;;;;;;5017998;28;20491;-87
2021/11/17 15:24:48;;;;;;;18.70;16.70;;;6.90;99.90;;;;;;5020038;28;20393;-88
2021/11/17 15:27:26;;;;;;;19.57;16.87;;;6.90;99.90;;;;;;5014464;28;20399;-87
2021/11/17 15:29:52;;;;;;;17.48;15.65;;;7.00;99.90;;;;;;5024652;28;20385;-90
2021/11/17 15:32:19;;;;;;;19.65;16.70;;;7.00;99.90;;;;;;5039652;28;20830;-87
2021/11/17 15:34:49;;;;;;;18.48;16.42;;;6.90;99.90;;;;;;5041881;28;20867;-87
2021/11/17 15:37:16;;;;;;;20.55;15.38;;;7.00;99.90;;;;;;5019606;28;20417;-85
2021/11/17 15:39:41;;;;;;;17.20;14.77;;;7.00;99.90;;;;;;5031338;28;20402;-89
2021/11/17 15:42:07;;;;;;;18.60;14.50;;;7.00;99.90;;;;;;5022538;28;20398;-87
2021/11/17 15:44:34;;;;;;;17.83;14.35;;;7.00;99.90;;;;;;5030471;28;20396;-89
2021/11/17 15:47:05;;;;;;;16.25;14.52;;;7.00;99.90;;;;;;5023154;28;20382;-88
2021/11/17 15:49:32;;;;;;;16.85;14.32;;;7.00;99.90;;;;;;5018302;28;20402;-88
2021/11/17 15:52:03;;;;;;;16.27;14.57;;;7.00;99.90;;;;;;5034566;28;20377;-90